Terminal Aerodrome Forecast
Issued by NWS Sterling, VA

Home | Current Version | Previous Version | Text Only | Print | Product List | Glossary On
Versions: 1 2 3 4 5 6 7 8 9 10 11 12 13 14 15 16
000
FTUS41 KLWX 312341
TAFCHO
TAF
KCHO 312341Z 0100/0124 09003KT P6SM FEW050
     FM010700 00000KT 3SM BR SCT150
     FM011000 00000KT 2SM BR SCT150
     FM011200 VRB03KT 3SM BR SCT150
     FM011400 06004KT P6SM FEW050 SCT150
     FM011800 10006KT P6SM BKN040 BKN050=

USA.gov is the U.S. government's official web portal to all federal, state and local government web resources and services.